sensor_id;sensor_type;location;lat;lon;timestamp;P1;durP1;ratioP1;P2;durP2;ratioP2
14510;SDS011;7341;50.930;4.038;2022-12-18T00:01:14;56.90;;;30.37;;
14510;SDS011;7341;50.930;4.038;2022-12-18T00:03:43;58.80;;;31.73;;
14510;SDS011;7341;50.930;4.038;2022-12-18T00:06:10;65.90;;;33.33;;
14510;SDS011;7341;50.930;4.038;2022-12-18T00:08:38;67.93;;;33.67;;
14510;SDS011;7341;50.930;4.038;2022-12-18T00:11:12;58.53;;;32.83;;
14510;SDS011;7341;50.930;4.038;2022-12-18T00:13:41;67.13;;;34.10;;
14510;SDS011;7341;50.930;4.038;2022-12-18T00:16:11;64.60;;;34.77;;
14510;SDS011;7341;50.930;4.038;2022-12-18T00:18:39;67.23;;;33.37;;
14510;SDS011;7341;50.930;4.038;2022-12-18T00:21:07;63.13;;;32.37;;
14510;SDS011;7341;50.930;4.038;2022-12-18T00:23:36;63.27;;;32.83;;
14510;SDS011;7341;50.930;4.038;2022-12-18T00:26:04;65.60;;;33.43;;
14510;SDS011;7341;50.930;4.038;2022-12-18T00:28:34;69.67;;;32.23;;
14510;SDS011;7341;50.930;4.038;2022-12-18T00:31:01;59.70;;;32.57;;
14510;SDS011;7341;50.930;4.038;2022-12-18T00:33:30;67.30;;;32.70;;
14510;SDS011;7341;50.930;4.038;2022-12-18T00:36:00;55.83;;;30.80;;
14510;SDS011;7341;50.930;4.038;2022-12-18T00:38:29;66.20;;;32.63;;
14510;SDS011;7341;50.930;4.038;2022-12-18T00:40:56;59.83;;;31.87;;
14510;SDS011;7341;50.930;4.038;2022-12-18T00:43:29;68.47;;;31.37;;
14510;SDS011;7341;50.930;4.038;2022-12-18T00:45:55;53.50;;;30.17;;
14510;SDS011;7341;50.930;4.038;2022-12-18T00:48:22;62.60;;;31.53;;
14510;SDS011;7341;50.930;4.038;2022-12-18T00:50:51;57.37;;;30.87;;
14510;SDS011;7341;50.930;4.038;2022-12-18T00:53:17;54.73;;;30.67;;
14510;SDS011;7341;50.930;4.038;2022-12-18T00:55:44;61.40;;;30.87;;
14510;SDS011;7341;50.930;4.038;2022-12-18T00:58:13;55.30;;;29.53;;
14510;SDS011;7341;50.930;4.038;2022-12-18T01:00:41;58.27;;;30.47;;
14510;SDS011;7341;50.930;4.038;2022-12-18T01:03:10;61.27;;;30.97;;
14510;SDS011;7341;50.930;4.038;2022-12-18T01:05:39;63.20;;;31.63;;
14510;SDS011;7341;50.930;4.038;2022-12-18T01:08:09;63.67;;;30.60;;
14510;SDS011;7341;50.930;4.038;2022-12-18T01:10:39;59.78;;;32.17;;
14510;SDS011;7341;50.930;4.038;2022-12-18T01:13:06;60.53;;;31.02;;
14510;SDS011;7341;50.930;4.038;2022-12-18T01:15:38;53.23;;;29.27;;
14510;SDS011;7341;50.930;4.038;2022-12-18T01:18:08;54.42;;;29.20;;
14510;SDS011;7341;50.930;4.038;2022-12-18T01:20:34;67.07;;;38.90;;
14510;SDS011;7341;50.930;4.038;2022-12-18T01:23:01;55.50;;;29.77;;
14510;SDS011;7341;50.930;4.038;2022-12-18T01:25:29;57.63;;;29.77;;
14510;SDS011;7341;50.930;4.038;2022-12-18T01:27:56;52.30;;;28.63;;
14510;SDS011;7341;50.930;4.038;2022-12-18T01:30:24;56.40;;;28.38;;
14510;SDS011;7341;50.930;4.038;2022-12-18T01:32:52;57.23;;;29.40;;
14510;SDS011;7341;50.930;4.038;2022-12-18T01:35:20;58.73;;;29.27;;
14510;SDS011;7341;50.930;4.038;2022-12-18T01:37:47;52.20;;;28.57;;
14510;SDS011;7341;50.930;4.038;2022-12-18T01:40:13;56.03;;;28.47;;
14510;SDS011;7341;50.930;4.038;2022-12-18T01:42:42;61.75;;;30.73;;
14510;SDS011;7341;50.930;4.038;2022-12-18T01:45:22;58.92;;;29.50;;
14510;SDS011;7341;50.930;4.038;2022-12-18T01:47:50;56.60;;;28.08;;
14510;SDS011;7341;50.930;4.038;2022-12-18T01:50:19;54.13;;;29.98;;
14510;SDS011;7341;50.930;4.038;2022-12-18T01:52:48;57.80;;;29.45;;
14510;SDS011;7341;50.930;4.038;2022-12-18T01:55:19;60.78;;;30.27;;
14510;SDS011;7341;50.930;4.038;2022-12-18T01:57:49;50.35;;;28.70;;
14510;SDS011;7341;50.930;4.038;2022-12-18T02:00:20;57.43;;;29.87;;
14510;SDS011;7341;50.930;4.038;2022-12-18T02:02:48;58.63;;;28.48;;
14510;SDS011;7341;50.930;4.038;2022-12-18T02:05:16;51.85;;;28.08;;
14510;SDS011;7341;50.930;4.038;2022-12-18T02:07:49;55.47;;;27.52;;
14510;SDS011;7341;50.930;4.038;2022-12-18T02:10:34;56.67;;;30.33;;
14510;SDS011;7341;50.930;4.038;2022-12-18T02:13:11;57.83;;;29.00;;
14510;SDS011;7341;50.930;4.038;2022-12-18T02:15:47;51.45;;;28.42;;
14510;SDS011;7341;50.930;4.038;2022-12-18T02:18:20;52.00;;;26.48;;
14510;SDS011;7341;50.930;4.038;2022-12-18T02:20:53;60.58;;;29.00;;
14510;SDS011;7341;50.930;4.038;2022-12-18T02:23:27;53.80;;;28.05;;
14510;SDS011;7341;50.930;4.038;2022-12-18T02:26:13;58.97;;;27.63;;
14510;SDS011;7341;50.930;4.038;2022-12-18T02:28:44;56.15;;;27.80;;
14510;SDS011;7341;50.930;4.038;2022-12-18T02:31:21;56.85;;;29.48;;
14510;SDS011;7341;50.930;4.038;2022-12-18T02:33:51;53.80;;;27.52;;
14510;SDS011;7341;50.930;4.038;2022-12-18T02:36:21;51.97;;;26.63;;
14510;SDS011;7341;50.930;4.038;2022-12-18T02:38:49;56.85;;;29.95;;
14510;SDS011;7341;50.930;4.038;2022-12-18T02:41:20;56.83;;;28.30;;
14510;SDS011;7341;50.930;4.038;2022-12-18T02:43:53;54.35;;;28.67;;
14510;SDS011;7341;50.930;4.038;2022-12-18T02:46:31;55.45;;;28.63;;
14510;SDS011;7341;50.930;4.038;2022-12-18T02:49:06;50.80;;;27.77;;
14510;SDS011;7341;50.930;4.038;2022-12-18T02:51:47;52.90;;;27.75;;
14510;SDS011;7341;50.930;4.038;2022-12-18T02:54:20;53.22;;;27.83;;
14510;SDS011;7341;50.930;4.038;2022-12-18T02:56:58;57.72;;;29.17;;
14510;SDS011;7341;50.930;4.038;2022-12-18T02:59:37;51.72;;;27.73;;
14510;SDS011;7341;50.930;4.038;2022-12-18T03:02:09;55.20;;;26.70;;
14510;SDS011;7341;50.930;4.038;2022-12-18T03:04:47;50.55;;;27.02;;
14510;SDS011;7341;50.930;4.038;2022-12-18T03:07:21;50.67;;;26.60;;
14510;SDS011;7341;50.930;4.038;2022-12-18T03:10:06;49.67;;;25.48;;
14510;SDS011;7341;50.930;4.038;2022-12-18T03:12:37;50.65;;;24.85;;
14510;SDS011;7341;50.930;4.038;2022-12-18T03:15:09;51.33;;;26.63;;
14510;SDS011;7341;50.930;4.038;2022-12-18T03:17:40;46.92;;;24.20;;
14510;SDS011;7341;50.930;4.038;2022-12-18T03:20:12;50.80;;;25.65;;
14510;SDS011;7341;50.930;4.038;2022-12-18T03:22:42;51.75;;;26.00;;
14510;SDS011;7341;50.930;4.038;2022-12-18T03:25:13;50.15;;;24.60;;
14510;SDS011;7341;50.930;4.038;2022-12-18T03:27:44;51.58;;;26.13;;
14510;SDS011;7341;50.930;4.038;2022-12-18T03:30:15;48.47;;;24.27;;
14510;SDS011;7341;50.930;4.038;2022-12-18T03:32:44;42.28;;;23.95;;
14510;SDS011;7341;50.930;4.038;2022-12-18T03:35:16;50.97;;;25.60;;
14510;SDS011;7341;50.930;4.038;2022-12-18T03:37:48;51.25;;;24.40;;
14510;SDS011;7341;50.930;4.038;2022-12-18T03:40:15;48.25;;;25.10;;
14510;SDS011;7341;50.930;4.038;2022-12-18T03:42:45;56.60;;;30.23;;
14510;SDS011;7341;50.930;4.038;2022-12-18T03:45:17;53.47;;;26.70;;
14510;SDS011;7341;50.930;4.038;2022-12-18T03:47:59;45.85;;;24.67;;
14510;SDS011;7341;50.930;4.038;2022-12-18T03:50:33;48.22;;;24.40;;
14510;SDS011;7341;50.930;4.038;2022-12-18T03:53:08;48.08;;;23.23;;
14510;SDS011;7341;50.930;4.038;2022-12-18T03:55:43;46.78;;;24.88;;
14510;SDS011;7341;50.930;4.038;2022-12-18T03:58:12;42.55;;;22.85;;
14510;SDS011;7341;50.930;4.038;2022-12-18T04:00:43;39.92;;;21.20;;
14510;SDS011;7341;50.930;4.038;2022-12-18T04:03:11;45.30;;;22.10;;
14510;SDS011;7341;50.930;4.038;2022-12-18T04:05:39;42.40;;;21.20;;
14510;SDS011;7341;50.930;4.038;2022-12-18T04:08:08;41.40;;;20.25;;
14510;SDS011;7341;50.930;4.038;2022-12-18T04:10:35;39.72;;;21.25;;
14510;SDS011;7341;50.930;4.038;2022-12-18T04:13:02;39.80;;;20.63;;
14510;SDS011;7341;50.930;4.038;2022-12-18T04:15:30;48.05;;;23.30;;
14510;SDS011;7341;50.930;4.038;2022-12-18T04:18:01;38.45;;;21.52;;
14510;SDS011;7341;50.930;4.038;2022-12-18T04:20:27;39.70;;;20.52;;
14510;SDS011;7341;50.930;4.038;2022-12-18T04:22:55;43.03;;;22.00;;
14510;SDS011;7341;50.930;4.038;2022-12-18T04:25:27;41.15;;;21.70;;
14510;SDS011;7341;50.930;4.038;2022-12-18T04:27:54;44.38;;;20.85;;
14510;SDS011;7341;50.930;4.038;2022-12-18T04:32:54;42.78;;;22.52;;
14510;SDS011;7341;50.930;4.038;2022-12-18T04:35:21;36.85;;;19.45;;
14510;SDS011;7341;50.930;4.038;2022-12-18T04:37:48;41.53;;;21.20;;
14510;SDS011;7341;50.930;4.038;2022-12-18T04:40:15;50.03;;;24.85;;
14510;SDS011;7341;50.930;4.038;2022-12-18T04:42:42;39.63;;;22.35;;
14510;SDS011;7341;50.930;4.038;2022-12-18T04:45:09;43.17;;;23.73;;
14510;SDS011;7341;50.930;4.038;2022-12-18T04:47:36;40.22;;;21.50;;
14510;SDS011;7341;50.930;4.038;2022-12-18T04:50:05;43.40;;;22.80;;
14510;SDS011;7341;50.930;4.038;2022-12-18T04:52:32;43.63;;;21.73;;
14510;SDS011;7341;50.930;4.038;2022-12-18T04:55:02;41.55;;;22.60;;
14510;SDS011;7341;50.930;4.038;2022-12-18T04:57:29;41.38;;;21.13;;
14510;SDS011;7341;50.930;4.038;2022-12-18T04:59:56;45.38;;;22.80;;
14510;SDS011;7341;50.930;4.038;2022-12-18T05:02:28;42.65;;;21.95;;
14510;SDS011;7341;50.930;4.038;2022-12-18T05:04:55;46.25;;;21.95;;
14510;SDS011;7341;50.930;4.038;2022-12-18T05:07:26;40.45;;;21.25;;
14510;SDS011;7341;50.930;4.038;2022-12-18T05:09:53;50.13;;;32.30;;
14510;SDS011;7341;50.930;4.038;2022-12-18T05:12:20;45.90;;;23.40;;
14510;SDS011;7341;50.930;4.038;2022-12-18T05:14:47;41.72;;;22.25;;
14510;SDS011;7341;50.930;4.038;2022-12-18T05:17:15;41.22;;;21.33;;
14510;SDS011;7341;50.930;4.038;2022-12-18T05:19:43;36.97;;;20.63;;
14510;SDS011;7341;50.930;4.038;2022-12-18T05:22:10;39.47;;;20.50;;
14510;SDS011;7341;50.930;4.038;2022-12-18T05:24:39;38.45;;;20.50;;
14510;SDS011;7341;50.930;4.038;2022-12-18T05:27:06;40.15;;;20.42;;
14510;SDS011;7341;50.930;4.038;2022-12-18T05:29:33;35.78;;;18.08;;
14510;SDS011;7341;50.930;4.038;2022-12-18T05:32:00;33.92;;;19.00;;
14510;SDS011;7341;50.930;4.038;2022-12-18T05:34:26;34.30;;;19.10;;
14510;SDS011;7341;50.930;4.038;2022-12-18T05:36:54;38.00;;;19.88;;
14510;SDS011;7341;50.930;4.038;2022-12-18T05:39:21;33.42;;;18.80;;
14510;SDS011;7341;50.930;4.038;2022-12-18T05:41:55;36.35;;;18.10;;
14510;SDS011;7341;50.930;4.038;2022-12-18T05:44:23;38.50;;;19.90;;
14510;SDS011;7341;50.930;4.038;2022-12-18T05:46:55;37.05;;;19.42;;
14510;SDS011;7341;50.930;4.038;2022-12-18T05:49:22;35.05;;;18.45;;
14510;SDS011;7341;50.930;4.038;2022-12-18T05:51:49;33.78;;;18.27;;
14510;SDS011;7341;50.930;4.038;2022-12-18T05:54:16;30.90;;;17.65;;
14510;SDS011;7341;50.930;4.038;2022-12-18T05:56:44;34.72;;;19.13;;
14510;SDS011;7341;50.930;4.038;2022-12-18T05:59:12;35.97;;;17.77;;
14510;SDS011;7341;50.930;4.038;2022-12-18T06:01:39;33.83;;;17.77;;
14510;SDS011;7341;50.930;4.038;2022-12-18T06:04:06;36.88;;;19.35;;
14510;SDS011;7341;50.930;4.038;2022-12-18T06:06:33;32.90;;;17.77;;
14510;SDS011;7341;50.930;4.038;2022-12-18T06:09:00;32.78;;;17.88;;
14510;SDS011;7341;50.930;4.038;2022-12-18T06:11:36;34.17;;;17.83;;
14510;SDS011;7341;50.930;4.038;2022-12-18T06:14:04;33.40;;;16.60;;
14510;SDS011;7341;50.930;4.038;2022-12-18T06:16:34;32.63;;;18.33;;
14510;SDS011;7341;50.930;4.038;2022-12-18T06:19:03;32.38;;;17.65;;
14510;SDS011;7341;50.930;4.038;2022-12-18T06:21:31;34.15;;;17.85;;
14510;SDS011;7341;50.930;4.038;2022-12-18T06:24:05;31.70;;;17.42;;
14510;SDS011;7341;50.930;4.038;2022-12-18T06:26:32;34.75;;;19.52;;
14510;SDS011;7341;50.930;4.038;2022-12-18T06:29:05;35.75;;;19.40;;
14510;SDS011;7341;50.930;4.038;2022-12-18T06:31:38;32.90;;;18.13;;
14510;SDS011;7341;50.930;4.038;2022-12-18T06:34:05;31.35;;;18.05;;
14510;SDS011;7341;50.930;4.038;2022-12-18T06:36:32;29.55;;;16.52;;
14510;SDS011;7341;50.930;4.038;2022-12-18T06:38:59;30.27;;;16.73;;
14510;SDS011;7341;50.930;4.038;2022-12-18T06:41:29;33.22;;;18.30;;
14510;SDS011;7341;50.930;4.038;2022-12-18T06:43:55;36.85;;;17.20;;
14510;SDS011;7341;50.930;4.038;2022-12-18T06:46:23;34.13;;;17.52;;
14510;SDS011;7341;50.930;4.038;2022-12-18T06:48:52;29.77;;;16.73;;
14510;SDS011;7341;50.930;4.038;2022-12-18T06:51:22;30.52;;;16.52;;
14510;SDS011;7341;50.930;4.038;2022-12-18T06:53:49;37.55;;;18.63;;
14510;SDS011;7341;50.930;4.038;2022-12-18T06:56:16;28.95;;;16.83;;
14510;SDS011;7341;50.930;4.038;2022-12-18T06:58:43;28.80;;;16.35;;
14510;SDS011;7341;50.930;4.038;2022-12-18T07:01:10;34.08;;;18.75;;
14510;SDS011;7341;50.930;4.038;2022-12-18T07:03:38;31.60;;;17.30;;
14510;SDS011;7341;50.930;4.038;2022-12-18T07:06:11;31.42;;;17.80;;
14510;SDS011;7341;50.930;4.038;2022-12-18T07:08:40;28.65;;;16.10;;
14510;SDS011;7341;50.930;4.038;2022-12-18T07:11:07;30.17;;;17.92;;
14510;SDS011;7341;50.930;4.038;2022-12-18T07:13:35;34.53;;;17.73;;
14510;SDS011;7341;50.930;4.038;2022-12-18T07:16:06;30.90;;;17.25;;
14510;SDS011;7341;50.930;4.038;2022-12-18T07:18:33;35.30;;;17.48;;
14510;SDS011;7341;50.930;4.038;2022-12-18T07:21:04;33.15;;;17.55;;
14510;SDS011;7341;50.930;4.038;2022-12-18T07:23:33;35.25;;;17.08;;
14510;SDS011;7341;50.930;4.038;2022-12-18T07:26:02;28.77;;;17.45;;
14510;SDS011;7341;50.930;4.038;2022-12-18T07:28:34;31.48;;;15.93;;
14510;SDS011;7341;50.930;4.038;2022-12-18T07:31:03;28.92;;;16.30;;
14510;SDS011;7341;50.930;4.038;2022-12-18T07:33:31;28.08;;;15.55;;
14510;SDS011;7341;50.930;4.038;2022-12-18T07:35:59;31.15;;;16.13;;
14510;SDS011;7341;50.930;4.038;2022-12-18T07:38:26;26.92;;;15.77;;
14510;SDS011;7341;50.930;4.038;2022-12-18T07:40:54;26.73;;;14.68;;
14510;SDS011;7341;50.930;4.038;2022-12-18T07:43:25;30.20;;;15.32;;
14510;SDS011;7341;50.930;4.038;2022-12-18T07:45:52;29.58;;;15.25;;
14510;SDS011;7341;50.930;4.038;2022-12-18T07:48:19;24.95;;;13.70;;
14510;SDS011;7341;50.930;4.038;2022-12-18T07:50:46;26.63;;;14.02;;
14510;SDS011;7341;50.930;4.038;2022-12-18T07:53:14;27.55;;;14.18;;
14510;SDS011;7341;50.930;4.038;2022-12-18T07:55:41;25.13;;;13.73;;
14510;SDS011;7341;50.930;4.038;2022-12-18T07:58:10;24.25;;;13.90;;
14510;SDS011;7341;50.930;4.038;2022-12-18T08:00:38;40.25;;;22.23;;
14510;SDS011;7341;50.930;4.038;2022-12-18T08:03:04;23.88;;;14.02;;
14510;SDS011;7341;50.930;4.038;2022-12-18T08:05:32;26.63;;;13.88;;
14510;SDS011;7341;50.930;4.038;2022-12-18T08:08:01;24.50;;;12.77;;
14510;SDS011;7341;50.930;4.038;2022-12-18T08:10:34;22.75;;;13.82;;
14510;SDS011;7341;50.930;4.038;2022-12-18T08:13:01;26.42;;;13.98;;
14510;SDS011;7341;50.930;4.038;2022-12-18T08:15:30;21.40;;;13.18;;
14510;SDS011;7341;50.930;4.038;2022-12-18T08:17:58;23.63;;;12.68;;
14510;SDS011;7341;50.930;4.038;2022-12-18T08:20:25;23.48;;;13.13;;
14510;SDS011;7341;50.930;4.038;2022-12-18T08:22:53;22.70;;;12.40;;
14510;SDS011;7341;50.930;4.038;2022-12-18T08:25:19;28.83;;;14.20;;
14510;SDS011;7341;50.930;4.038;2022-12-18T08:27:46;23.73;;;12.93;;
14510;SDS011;7341;50.930;4.038;2022-12-18T08:30:14;22.52;;;12.27;;
14510;SDS011;7341;50.930;4.038;2022-12-18T08:32:42;20.67;;;10.65;;
14510;SDS011;7341;50.930;4.038;2022-12-18T08:35:09;18.75;;;11.52;;
14510;SDS011;7341;50.930;4.038;2022-12-18T08:37:38;16.67;;;10.35;;
14510;SDS011;7341;50.930;4.038;2022-12-18T08:40:06;16.40;;;10.40;;
14510;SDS011;7341;50.930;4.038;2022-12-18T08:42:34;16.20;;;11.00;;
14510;SDS011;7341;50.930;4.038;2022-12-18T08:45:18;14.27;;;10.30;;
14510;SDS011;7341;50.930;4.038;2022-12-18T08:47:46;18.17;;;10.67;;
14510;SDS011;7341;50.930;4.038;2022-12-18T08:50:13;18.10;;;10.53;;
14510;SDS011;7341;50.930;4.038;2022-12-18T08:52:40;17.23;;;10.13;;
14510;SDS011;7341;50.930;4.038;2022-12-18T08:55:07;16.77;;;10.87;;
14510;SDS011;7341;50.930;4.038;2022-12-18T08:57:35;19.20;;;11.07;;
14510;SDS011;7341;50.930;4.038;2022-12-18T09:00:02;16.30;;;10.63;;
14510;SDS011;7341;50.930;4.038;2022-12-18T09:02:29;15.53;;;10.33;;
14510;SDS011;7341;50.930;4.038;2022-12-18T09:04:57;17.77;;;11.40;;
14510;SDS011;7341;50.930;4.038;2022-12-18T09:07:24;17.97;;;11.13;;
14510;SDS011;7341;50.930;4.038;2022-12-18T09:09:50;15.87;;;9.97;;
14510;SDS011;7341;50.930;4.038;2022-12-18T09:12:17;17.10;;;10.10;;
14510;SDS011;7341;50.930;4.038;2022-12-18T09:14:44;17.83;;;11.07;;
14510;SDS011;7341;50.930;4.038;2022-12-18T09:17:11;18.70;;;11.17;;
14510;SDS011;7341;50.930;4.038;2022-12-18T09:19:38;16.67;;;11.20;;
14510;SDS011;7341;50.930;4.038;2022-12-18T09:22:06;16.43;;;10.73;;
14510;SDS011;7341;50.930;4.038;2022-12-18T09:24:34;18.30;;;11.70;;
14510;SDS011;7341;50.930;4.038;2022-12-18T09:27:01;16.93;;;11.27;;
14510;SDS011;7341;50.930;4.038;2022-12-18T09:29:28;18.90;;;11.53;;
14510;SDS011;7341;50.930;4.038;2022-12-18T09:31:56;17.07;;;10.57;;
14510;SDS011;7341;50.930;4.038;2022-12-18T09:34:23;16.53;;;11.47;;
14510;SDS011;7341;50.930;4.038;2022-12-18T09:36:50;14.57;;;10.83;;
14510;SDS011;7341;50.930;4.038;2022-12-18T09:39:18;19.97;;;11.50;;
14510;SDS011;7341;50.930;4.038;2022-12-18T09:41:46;14.20;;;10.10;;
14510;SDS011;7341;50.930;4.038;2022-12-18T09:44:17;15.40;;;10.37;;
14510;SDS011;7341;50.930;4.038;2022-12-18T09:46:49;16.63;;;10.27;;
14510;SDS011;7341;50.930;4.038;2022-12-18T09:49:26;16.50;;;10.60;;
14510;SDS011;7341;50.930;4.038;2022-12-18T09:51:56;14.53;;;10.00;;
14510;SDS011;7341;50.930;4.038;2022-12-18T09:54:30;15.47;;;10.20;;
14510;SDS011;7341;50.930;4.038;2022-12-18T09:56:59;12.20;;;9.50;;
14510;SDS011;7341;50.930;4.038;2022-12-18T09:59:26;15.60;;;9.80;;
14510;SDS011;7341;50.930;4.038;2022-12-18T10:01:58;15.43;;;10.67;;
14510;SDS011;7341;50.930;4.038;2022-12-18T10:04:24;14.13;;;10.07;;
14510;SDS011;7341;50.930;4.038;2022-12-18T10:06:58;17.63;;;10.40;;
14510;SDS011;7341;50.930;4.038;2022-12-18T10:09:35;15.07;;;9.43;;
14510;SDS011;7341;50.930;4.038;2022-12-18T10:12:08;14.80;;;10.40;;
14510;SDS011;7341;50.930;4.038;2022-12-18T10:14:46;16.67;;;10.70;;
14510;SDS011;7341;50.930;4.038;2022-12-18T10:17:19;14.13;;;9.70;;
14510;SDS011;7341;50.930;4.038;2022-12-18T10:19:52;18.67;;;10.40;;
14510;SDS011;7341;50.930;4.038;2022-12-18T10:22:25;14.00;;;9.57;;
14510;SDS011;7341;50.930;4.038;2022-12-18T10:25:03;14.23;;;9.67;;
14510;SDS011;7341;50.930;4.038;2022-12-18T10:27:32;13.83;;;9.57;;
14510;SDS011;7341;50.930;4.038;2022-12-18T10:29:59;17.17;;;13.15;;
14510;SDS011;7341;50.930;4.038;2022-12-18T10:32:35;15.20;;;10.70;;
14510;SDS011;7341;50.930;4.038;2022-12-18T10:35:01;12.57;;;9.60;;
14510;SDS011;7341;50.930;4.038;2022-12-18T10:37:29;15.23;;;10.60;;
14510;SDS011;7341;50.930;4.038;2022-12-18T10:40:08;17.97;;;10.33;;
14510;SDS011;7341;50.930;4.038;2022-12-18T10:42:37;16.13;;;10.20;;
14510;SDS011;7341;50.930;4.038;2022-12-18T10:45:11;14.93;;;10.37;;
14510;SDS011;7341;50.930;4.038;2022-12-18T10:47:43;15.83;;;10.70;;
14510;SDS011;7341;50.930;4.038;2022-12-18T10:50:18;15.00;;;10.23;;
14510;SDS011;7341;50.930;4.038;2022-12-18T10:52:55;15.13;;;10.73;;
14510;SDS011;7341;50.930;4.038;2022-12-18T10:55:26;16.83;;;10.90;;
14510;SDS011;7341;50.930;4.038;2022-12-18T10:58:13;14.47;;;10.57;;
14510;SDS011;7341;50.930;4.038;2022-12-18T11:00:43;16.73;;;10.93;;
14510;SDS011;7341;50.930;4.038;2022-12-18T11:06:01;17.30;;;11.30;;
14510;SDS011;7341;50.930;4.038;2022-12-18T11:08:29;17.30;;;11.10;;
14510;SDS011;7341;50.930;4.038;2022-12-18T11:10:58;15.60;;;10.57;;
14510;SDS011;7341;50.930;4.038;2022-12-18T11:13:27;21.43;;;11.80;;
14510;SDS011;7341;50.930;4.038;2022-12-18T11:15:56;16.00;;;10.27;;
14510;SDS011;7341;50.930;4.038;2022-12-18T11:18:25;20.30;;;10.20;;
14510;SDS011;7341;50.930;4.038;2022-12-18T11:20:55;13.60;;;10.20;;
14510;SDS011;7341;50.930;4.038;2022-12-18T11:23:25;16.20;;;11.40;;
14510;SDS011;7341;50.930;4.038;2022-12-18T11:25:54;15.13;;;10.47;;
14510;SDS011;7341;50.930;4.038;2022-12-18T11:28:28;16.73;;;11.43;;
14510;SDS011;7341;50.930;4.038;2022-12-18T11:31:09;16.83;;;11.33;;
14510;SDS011;7341;50.930;4.038;2022-12-18T11:33:51;20.07;;;11.23;;
14510;SDS011;7341;50.930;4.038;2022-12-18T11:36:22;14.33;;;10.70;;
14510;SDS011;7341;50.930;4.038;2022-12-18T11:38:52;14.70;;;11.13;;
14510;SDS011;7341;50.930;4.038;2022-12-18T11:41:26;19.43;;;12.20;;
14510;SDS011;7341;50.930;4.038;2022-12-18T11:44:13;16.23;;;11.20;;
14510;SDS011;7341;50.930;4.038;2022-12-18T11:46:47;17.23;;;11.83;;
14510;SDS011;7341;50.930;4.038;2022-12-18T12:12:45;16.53;;;11.33;;
14510;SDS011;7341;50.930;4.038;2022-12-18T12:18:34;17.77;;;12.43;;
14510;SDS011;7341;50.930;4.038;2022-12-18T12:21:35;15.60;;;10.97;;
14510;SDS011;7341;50.930;4.038;2022-12-18T12:24:22;17.93;;;11.37;;
14510;SDS011;7341;50.930;4.038;2022-12-18T13:13:00;19.40;;;12.23;;
14510;SDS011;7341;50.930;4.038;2022-12-18T14:00:16;25.00;;;14.57;;
14510;SDS011;7341;50.930;4.038;2022-12-18T14:06:26;25.37;;;14.37;;
14510;SDS011;7341;50.930;4.038;2022-12-18T14:09:49;26.93;;;15.40;;
14510;SDS011;7341;50.930;4.038;2022-12-18T14:13:04;30.13;;;17.13;;
14510;SDS011;7341;50.930;4.038;2022-12-18T15:46:42;33.00;;;23.48;;
14510;SDS011;7341;50.930;4.038;2022-12-18T15:50:00;28.17;;;16.87;;
14510;SDS011;7341;50.930;4.038;2022-12-18T15:52:53;25.27;;;15.70;;
14510;SDS011;7341;50.930;4.038;2022-12-18T15:56:14;25.83;;;15.47;;
14510;SDS011;7341;50.930;4.038;2022-12-18T16:22:33;28.53;;;16.07;;
14510;SDS011;7341;50.930;4.038;2022-12-18T16:32:17;28.30;;;16.27;;
14510;SDS011;7341;50.930;4.038;2022-12-18T16:55:21;56.23;;;30.23;;
14510;SDS011;7341;50.930;4.038;2022-12-18T17:01:43;31.40;;;17.83;;
14510;SDS011;7341;50.930;4.038;2022-12-18T17:04:24;42.07;;;23.63;;
14510;SDS011;7341;50.930;4.038;2022-12-18T17:07:08;30.33;;;17.20;;
14510;SDS011;7341;50.930;4.038;2022-12-18T17:09:38;31.00;;;19.47;;
14510;SDS011;7341;50.930;4.038;2022-12-18T17:12:14;28.40;;;17.77;;
14510;SDS011;7341;50.930;4.038;2022-12-18T17:14:44;27.13;;;15.60;;
14510;SDS011;7341;50.930;4.038;2022-12-18T17:17:17;27.33;;;15.63;;
14510;SDS011;7341;50.930;4.038;2022-12-18T17:19:46;29.20;;;16.93;;
14510;SDS011;7341;50.930;4.038;2022-12-18T17:22:13;28.53;;;18.73;;
14510;SDS011;7341;50.930;4.038;2022-12-18T17:24:43;26.77;;;15.63;;
14510;SDS011;7341;50.930;4.038;2022-12-18T17:27:14;33.80;;;19.37;;
14510;SDS011;7341;50.930;4.038;2022-12-18T17:29:54;31.47;;;17.53;;
14510;SDS011;7341;50.930;4.038;2022-12-18T17:32:24;43.60;;;23.93;;
14510;SDS011;7341;50.930;4.038;2022-12-18T17:34:56;35.10;;;20.37;;
14510;SDS011;7341;50.930;4.038;2022-12-18T17:37:23;30.97;;;17.13;;
14510;SDS011;7341;50.930;4.038;2022-12-18T17:39:58;29.73;;;17.03;;
14510;SDS011;7341;50.930;4.038;2022-12-18T17:42:27;37.27;;;19.23;;
14510;SDS011;7341;50.930;4.038;2022-12-18T17:44:55;36.43;;;18.37;;
14510;SDS011;7341;50.930;4.038;2022-12-18T17:47:26;33.33;;;18.00;;
14510;SDS011;7341;50.930;4.038;2022-12-18T17:49:55;37.73;;;20.13;;
14510;SDS011;7341;50.930;4.038;2022-12-18T17:52:24;39.23;;;21.03;;
14510;SDS011;7341;50.930;4.038;2022-12-18T17:54:54;35.93;;;20.57;;
14510;SDS011;7341;50.930;4.038;2022-12-18T17:57:24;33.07;;;17.80;;
14510;SDS011;7341;50.930;4.038;2022-12-18T17:59:54;35.63;;;19.50;;
14510;SDS011;7341;50.930;4.038;2022-12-18T18:02:22;35.60;;;18.50;;
14510;SDS011;7341;50.930;4.038;2022-12-18T18:04:54;31.13;;;17.87;;
14510;SDS011;7341;50.930;4.038;2022-12-18T18:07:22;28.80;;;16.87;;
14510;SDS011;7341;50.930;4.038;2022-12-18T18:09:54;31.47;;;17.67;;
14510;SDS011;7341;50.930;4.038;2022-12-18T18:12:52;32.63;;;18.03;;
14510;SDS011;7341;50.930;4.038;2022-12-18T18:15:36;32.93;;;18.27;;
14510;SDS011;7341;50.930;4.038;2022-12-18T18:18:04;33.60;;;18.60;;
14510;SDS011;7341;50.930;4.038;2022-12-18T18:20:32;29.60;;;17.13;;
14510;SDS011;7341;50.930;4.038;2022-12-18T18:23:05;29.00;;;16.17;;
14510;SDS011;7341;50.930;4.038;2022-12-18T18:25:34;33.63;;;17.97;;
14510;SDS011;7341;50.930;4.038;2022-12-18T18:31:09;35.53;;;18.87;;
14510;SDS011;7341;50.930;4.038;2022-12-18T18:33:39;36.37;;;18.23;;
14510;SDS011;7341;50.930;4.038;2022-12-18T18:36:09;33.40;;;18.27;;
14510;SDS011;7341;50.930;4.038;2022-12-18T18:38:39;34.40;;;18.87;;
14510;SDS011;7341;50.930;4.038;2022-12-18T18:41:07;33.47;;;17.57;;
14510;SDS011;7341;50.930;4.038;2022-12-18T18:43:38;34.17;;;18.60;;
14510;SDS011;7341;50.930;4.038;2022-12-18T18:46:24;32.30;;;17.20;;
14510;SDS011;7341;50.930;4.038;2022-12-18T18:49:17;32.13;;;17.67;;
14510;SDS011;7341;50.930;4.038;2022-12-18T18:51:59;32.77;;;18.03;;
14510;SDS011;7341;50.930;4.038;2022-12-18T18:54:49;34.43;;;16.87;;
14510;SDS011;7341;50.930;4.038;2022-12-18T19:07:12;30.50;;;16.87;;
14510;SDS011;7341;50.930;4.038;2022-12-18T19:09:43;29.83;;;17.03;;
14510;SDS011;7341;50.930;4.038;2022-12-18T19:12:31;29.33;;;17.67;;
14510;SDS011;7341;50.930;4.038;2022-12-18T19:15:17;36.13;;;20.27;;
14510;SDS011;7341;50.930;4.038;2022-12-18T19:18:45;38.23;;;20.53;;
14510;SDS011;7341;50.930;4.038;2022-12-18T19:21:28;33.90;;;19.27;;
14510;SDS011;7341;50.930;4.038;2022-12-18T19:26:57;33.90;;;18.53;;
14510;SDS011;7341;50.930;4.038;2022-12-18T19:29:41;32.87;;;19.70;;
14510;SDS011;7341;50.930;4.038;2022-12-18T19:35:33;29.27;;;17.60;;
14510;SDS011;7341;50.930;4.038;2022-12-18T19:38:27;37.30;;;19.93;;
14510;SDS011;7341;50.930;4.038;2022-12-18T19:47:28;38.70;;;19.17;;
14510;SDS011;7341;50.930;4.038;2022-12-18T19:50:23;34.43;;;18.40;;
14510;SDS011;7341;50.930;4.038;2022-12-18T19:53:48;43.73;;;23.27;;
14510;SDS011;7341;50.930;4.038;2022-12-18T19:59:33;32.33;;;18.20;;
14510;SDS011;7341;50.930;4.038;2022-12-18T20:08:30;36.83;;;19.27;;
14510;SDS011;7341;50.930;4.038;2022-12-18T20:11:20;37.07;;;18.93;;